Humboldt, Nebraska
Current Conditions -  °F | °C
As of 3:24 AM on Friday 31 Oct 2014 (Local Time) from KFNB Reporting Station
Scattered Clouds Scattered Clouds  
Wind Chill: 28°   Ceiling: Unl
Heat Index: 38°   Visibility: 10mi
Dew Point: 28°   Wind: 21mph
Humidity: 68%   Direction: 360°N
Pressure: 30.39"   Gusts: 33mph
Location:  40.16°N, 95.94°W
Report Text: KFNB 310824Z AUTO 36018G29KT 10SM SCT026 03/M02 A3039 RMK AO2 PK WND 36029/0816 RAE0755 P0000 T00331022
Loading
Personal Weather Stations






























Interactive Weather Map
Tropical Storm Tracking
New forecast layout! Learn more

10-Day Weather Forecast

Advertisements
Track Severe Weather on mobile